Time;durP1;ratioP1;P1;durP2;ratioP2;P2;SDS_P1;SDS_P2;PMS_P1;PMS_P2;Temp;Humidity;BMP_temperature;BMP_pressure;BME280_temperature;BME280_humidity;BME280_pressure;Samples;Min_cycle;Max_cycle;Signal;HPM_P1;HPM_P2
2020/12/25 00:01:28;;;;;;;5.70;1.80;;;19.70;43.50;;;;;;5042507;28;20113;-71
2020/12/25 00:03:55;;;;;;;7.88;1.20;;;19.70;43.50;;;;;;5058947;28;20036;-71
2020/12/25 00:06:21;;;;;;;7.28;1.83;;;19.70;43.50;;;;;;5059485;28;20051;-70
2020/12/25 00:08:47;;;;;;;5.88;1.73;;;19.60;43.50;;;;;;5058577;28;20040;-71
2020/12/25 00:11:12;;;;;;;6.82;1.88;;;19.60;43.50;;;;;;5074862;28;20036;-71
2020/12/25 00:13:38;;;;;;;8.40;1.20;;;19.60;44.20;;;;;;5067945;28;20030;-70
2020/12/25 00:16:03;;;;;;;5.93;1.20;;;19.60;43.60;;;;;;5037845;28;20028;-73
2020/12/25 00:18:41;;;;;;;3.33;0.88;;;19.60;43.60;;;;;;5085567;28;20095;-74
2020/12/25 00:21:06;;;;;;;3.92;1.52;;;19.60;43.60;;;;;;5069036;28;20160;-75
2020/12/25 00:23:32;;;;;;;8.50;1.60;;;19.60;43.60;;;;;;5087842;28;20028;-73
2020/12/25 00:25:57;;;;;;;6.25;1.60;;;19.60;43.60;;;;;;5074424;28;20462;-74
2020/12/25 00:28:23;;;;;;;4.43;1.33;;;19.50;43.60;;;;;;5061033;28;20062;-74
2020/12/25 00:30:49;;;;;;;6.43;1.10;;;19.50;43.60;;;;;;5075249;28;20162;-74
2020/12/25 00:33:14;;;;;;;7.40;1.30;;;19.50;43.70;;;;;;5065133;28;20044;-74
2020/12/25 00:35:42;;;;;;;5.38;0.98;;;19.50;43.60;;;;;;5058720;28;20032;-74
2020/12/25 00:38:10;;;;;;;4.45;1.15;;;19.50;43.70;;;;;;5062417;28;20371;-75
2020/12/25 00:40:42;;;;;;;3.20;1.05;;;19.50;43.70;;;;;;5057544;28;20041;-74
2020/12/25 00:43:07;;;;;;;4.03;1.00;;;19.50;43.70;;;;;;5066724;28;20028;-75
2020/12/25 00:45:35;;;;;;;7.97;1.42;;;19.50;43.80;;;;;;5077866;28;20571;-75
2020/12/25 00:48:01;;;;;;;2.40;0.80;;;19.50;43.80;;;;;;5091793;28;20021;-73
2020/12/25 00:50:27;;;;;;;3.50;0.98;;;19.40;43.70;;;;;;5073911;28;20021;-74
2020/12/25 00:52:52;;;;;;;3.83;1.02;;;19.40;43.80;;;;;;5063507;28;20027;-74
2020/12/25 00:55:18;;;;;;;3.55;0.95;;;19.40;43.70;;;;;;5076355;28;20525;-75
2020/12/25 00:57:43;;;;;;;3.67;1.17;;;19.40;43.80;;;;;;5068796;28;20373;-73
2020/12/25 01:00:09;;;;;;;1.00;0.40;;;19.40;43.80;;;;;;5082124;28;20415;-72
2020/12/25 01:02:35;;;;;;;3.55;1.13;;;19.40;43.80;;;;;;5067451;28;20458;-73
2020/12/25 01:08:23;;;;;;;3.85;0.90;;;19.40;43.80;;;;;;5053875;28;22080;-73
2020/12/25 01:10:48;;;;;;;4.28;1.65;;;19.40;43.80;;;;;;5059636;28;20531;-72
2020/12/25 01:13:14;;;;;;;3.88;1.25;;;19.40;43.80;;;;;;5060344;28;20170;-73
2020/12/25 01:15:40;;;;;;;7.03;1.55;;;19.30;44.30;;;;;;5064044;28;20023;-73
2020/12/25 01:18:07;;;;;;;2.88;1.10;;;19.40;43.80;;;;;;5079043;28;20095;-73
2020/12/25 01:20:33;;;;;;;3.13;0.93;;;19.30;43.80;;;;;;5063419;28;20036;-72
2020/12/25 01:22:59;;;;;;;2.47;0.40;;;19.30;43.80;;;;;;5072448;28;20013;-73
2020/12/25 01:25:24;;;;;;;4.18;1.20;;;19.30;43.80;;;;;;5092115;28;20513;-73
2020/12/25 01:27:50;;;;;;;1.48;0.73;;;19.30;43.70;;;;;;5077562;28;20020;-73
2020/12/25 01:30:15;;;;;;;5.75;1.35;;;19.30;43.80;;;;;;5074426;28;20025;-74
2020/12/25 01:32:41;;;;;;;4.50;0.77;;;19.30;43.70;;;;;;5058210;28;20950;-73
2020/12/25 01:35:06;;;;;;;4.57;0.90;;;19.30;43.70;;;;;;5073402;28;20444;-73
2020/12/25 01:37:38;;;;;;;2.47;1.30;;;19.30;44.40;;;;;;5059135;28;20031;-74
2020/12/25 01:40:04;;;;;;;3.35;0.85;;;19.30;43.70;;;;;;5073757;28;20041;-73
2020/12/25 01:42:29;;;;;;;2.22;0.80;;;19.30;43.70;;;;;;5057000;28;20024;-74
2020/12/25 01:44:55;;;;;;;2.45;0.73;;;19.30;43.70;;;;;;5073171;28;20036;-73
2020/12/25 01:47:23;;;;;;;5.60;1.15;;;19.30;43.70;;;;;;5049642;28;20534;-69
2020/12/25 01:49:49;;;;;;;5.90;0.90;;;19.30;43.70;;;;;;5069908;28;20032;-69
2020/12/25 01:52:14;;;;;;;1.85;0.85;;;19.30;43.70;;;;;;5041094;28;20039;-69
2020/12/25 01:54:41;;;;;;;8.23;0.68;;;19.20;43.70;;;;;;5049903;28;20151;-69
2020/12/25 01:57:07;;;;;;;2.28;0.85;;;19.30;43.80;;;;;;5051872;28;20131;-69
2020/12/25 01:59:32;;;;;;;2.65;0.95;;;19.20;43.80;;;;;;5042398;28;20104;-70
2020/12/25 02:01:58;;;;;;;5.07;1.20;;;19.20;43.70;;;;;;5045235;28;20028;-70
2020/12/25 02:04:24;;;;;;;2.45;0.80;;;19.20;43.70;;;;;;5034989;28;20036;-70
2020/12/25 02:06:50;;;;;;;2.60;0.90;;;19.20;43.70;;;;;;5083132;28;20032;-71
2020/12/25 02:09:15;;;;;;;2.20;1.10;;;19.20;44.40;;;;;;5049319;28;20461;-70
2020/12/25 02:11:41;;;;;;;1.80;0.73;;;19.20;43.80;;;;;;5072089;28;20086;-70
2020/12/25 02:14:06;;;;;;;4.43;0.93;;;19.20;43.80;;;;;;5070722;28;20114;-71
2020/12/25 02:16:32;;;;;;;4.25;0.98;;;19.20;43.90;;;;;;5070099;28;20035;-70
2020/12/25 02:18:57;;;;;;;2.13;1.23;;;19.20;43.70;;;;;;5079357;28;20035;-70
2020/12/25 02:21:23;;;;;;;2.17;0.95;;;19.10;43.80;;;;;;5068647;28;20053;-70
2020/12/25 02:23:48;;;;;;;3.67;0.80;;;19.20;43.80;;;;;;5070356;28;20514;-70
2020/12/25 02:26:17;;;;;;;5.90;0.70;;;19.10;43.80;;;;;;5084180;28;20542;-70
2020/12/25 02:28:43;;;;;;;0.60;0.47;;;19.10;43.80;;;;;;5085571;28;20028;-71
2020/12/25 02:31:08;;;;;;;3.45;0.90;;;19.10;44.10;;;;;;5051826;28;20401;-70
2020/12/25 02:33:34;;;;;;;5.00;0.52;;;19.10;43.80;;;;;;5064138;28;20105;-70
2020/12/25 02:35:59;;;;;;;1.95;0.65;;;19.10;43.70;;;;;;5073543;28;20082;-70
2020/12/25 02:38:25;;;;;;;1.27;0.73;;;19.10;43.70;;;;;;5075646;28;20020;-70
2020/12/25 02:40:50;;;;;;;2.72;0.70;;;19.10;43.80;;;;;;5047392;28;20067;-71
2020/12/25 02:43:16;;;;;;;0.85;0.43;;;19.10;43.80;;;;;;5066395;28;20075;-70
2020/12/25 02:45:41;;;;;;;3.47;0.57;;;19.00;43.70;;;;;;5066500;28;20403;-70
2020/12/25 02:48:07;;;;;;;3.90;0.45;;;19.00;43.70;;;;;;5087772;28;20037;-70
2020/12/25 02:50:34;;;;;;;3.40;0.90;;;19.00;43.70;;;;;;5060768;28;20033;-70
2020/12/25 02:52:59;;;;;;;4.45;0.88;;;19.00;43.60;;;;;;5078770;28;20104;-70
2020/12/25 02:55:25;;;;;;;3.85;0.80;;;19.00;43.60;;;;;;5064863;28;20116;-70
2020/12/25 02:57:50;;;;;;;4.20;0.57;;;19.10;43.60;;;;;;5073230;28;20029;-70
2020/12/25 03:00:16;;;;;;;4.38;0.80;;;19.00;43.60;;;;;;5090393;28;20064;-70
2020/12/25 03:02:57;;;;;;;1.65;0.52;;;19.10;43.60;;;;;;5079654;28;20444;-70
2020/12/25 03:05:22;;;;;;;1.65;0.70;;;19.00;43.50;;;;;;5063075;28;20044;-70
2020/12/25 03:07:48;;;;;;;1.80;0.77;;;19.00;43.50;;;;;;5052854;28;20067;-71
2020/12/25 03:10:13;;;;;;;2.45;0.65;;;19.00;43.70;;;;;;5076098;28;20089;-70
2020/12/25 03:12:40;;;;;;;3.30;1.13;;;19.00;43.50;;;;;;5042114;28;20048;-70
2020/12/25 03:15:06;;;;;;;0.95;0.50;;;19.00;43.50;;;;;;5066990;28;20028;-69
2020/12/25 03:17:31;;;;;;;3.05;0.65;;;19.00;43.50;;;;;;5068407;28;20030;-69
2020/12/25 03:19:57;;;;;;;1.42;0.70;;;19.00;43.50;;;;;;5043335;28;20040;-69
2020/12/25 03:22:22;;;;;;;0.93;0.40;;;19.00;43.50;;;;;;5076072;28;20078;-69
2020/12/25 03:24:48;;;;;;;1.27;0.40;;;19.00;43.50;;;;;;5067906;28;20033;-69
2020/12/25 03:27:23;;;;;;;1.95;0.50;;;19.00;43.50;;;;;;5071695;28;20104;-69
2020/12/25 03:29:54;;;;;;;2.13;0.50;;;19.00;43.40;;;;;;5064963;28;20403;-69
2020/12/25 03:32:20;;;;;;;0.40;0.40;;;19.00;43.50;;;;;;5079129;28;20056;-69
2020/12/25 03:34:45;;;;;;;4.13;0.47;;;19.00;43.50;;;;;;5082646;28;20442;-69
2020/12/25 03:37:11;;;;;;;3.92;0.20;;;18.90;43.40;;;;;;5057091;28;20412;-69
2020/12/25 03:39:36;;;;;;;3.13;0.70;;;18.90;43.50;;;;;;5076252;28;20052;-70
2020/12/25 03:42:02;;;;;;;1.50;0.60;;;18.90;43.40;;;;;;5085814;28;20032;-70
2020/12/25 03:44:28;;;;;;;2.05;0.60;;;18.90;43.50;;;;;;5061929;28;20036;-70
2020/12/25 03:46:53;;;;;;;4.68;0.80;;;18.90;43.50;;;;;;5075290;28;20548;-69
2020/12/25 03:49:19;;;;;;;2.10;0.55;;;18.90;43.50;;;;;;5073536;28;20044;-69
2020/12/25 03:51:44;;;;;;;4.70;0.77;;;18.90;43.50;;;;;;5092878;28;20077;-70
2020/12/25 03:54:10;;;;;;;3.53;0.50;;;18.90;43.50;;;;;;5081479;28;20052;-69
2020/12/25 03:56:35;;;;;;;2.08;0.52;;;18.80;43.50;;;;;;5073125;28;20024;-69
2020/12/25 03:59:01;;;;;;;1.35;0.45;;;18.80;43.50;;;;;;5057741;28;20099;-70
2020/12/25 04:01:27;;;;;;;1.75;0.80;;;18.80;43.50;;;;;;5081162;28;20036;-74
2020/12/25 04:03:52;;;;;;;6.45;1.00;;;18.80;43.50;;;;;;5065201;28;20032;-74
2020/12/25 04:06:18;;;;;;;1.38;0.38;;;18.80;43.50;;;;;;5059364;28;20557;-73
2020/12/25 04:08:44;;;;;;;4.43;0.60;;;18.80;43.60;;;;;;5077715;28;20020;-73
2020/12/25 04:11:10;;;;;;;1.70;0.30;;;18.80;43.50;;;;;;5055672;28;20115;-74
2020/12/25 04:13:35;;;;;;;2.05;0.40;;;18.80;43.50;;;;;;5060476;28;22076;-73
2020/12/25 04:16:21;;;;;;;1.13;0.40;;;18.80;43.60;;;;;;5057261;28;20040;-73
2020/12/25 04:18:46;;;;;;;0.40;0.17;;;18.80;43.60;;;;;;5080023;28;20016;-73
2020/12/25 04:21:12;;;;;;;4.15;0.47;;;18.80;43.60;;;;;;5077030;28;20409;-73
2020/12/25 04:23:37;;;;;;;0.57;0.32;;;18.80;43.60;;;;;;5077109;28;20049;-75
2020/12/25 04:26:03;;;;;;;2.25;0.40;;;18.80;43.50;;;;;;5076193;28;20032;-73
2020/12/25 04:28:28;;;;;;;1.83;0.50;;;18.80;43.50;;;;;;5075870;28;20028;-72
2020/12/25 04:30:57;;;;;;;1.75;0.75;;;18.80;43.60;;;;;;5075931;28;20036;-72
2020/12/25 04:33:22;;;;;;;1.88;0.30;;;18.80;43.50;;;;;;5062417;28;20033;-73
2020/12/25 04:35:48;;;;;;;6.72;0.55;;;18.80;43.60;;;;;;5075023;28;20035;-73
2020/12/25 04:38:13;;;;;;;3.35;0.50;;;18.80;43.50;;;;;;5058636;28;20031;-73
2020/12/25 04:40:41;;;;;;;3.50;1.00;;;18.80;43.50;;;;;;5053535;28;20041;-72
2020/12/25 04:43:07;;;;;;;3.10;0.40;;;18.80;43.50;;;;;;5058461;28;20089;-73
2020/12/25 04:45:38;;;;;;;2.22;0.70;;;18.80;43.50;;;;;;5057092;28;20024;-73
2020/12/25 04:48:04;;;;;;;1.98;0.60;;;18.80;43.40;;;;;;5075840;28;20020;-73
2020/12/25 04:50:30;;;;;;;1.55;0.40;;;18.80;43.40;;;;;;5056868;28;20055;-72
2020/12/25 04:52:55;;;;;;;5.10;0.90;;;18.80;43.50;;;;;;5058727;28;20032;-73
2020/12/25 04:55:21;;;;;;;0.40;0.40;;;18.80;43.40;;;;;;5078009;28;20495;-73
2020/12/25 04:57:46;;;;;;;1.95;0.50;;;18.70;43.30;;;;;;5078793;28;20393;-73
2020/12/25 05:00:16;;;;;;;2.22;0.43;;;18.70;43.30;;;;;;5060689;28;20059;-72
2020/12/25 05:02:42;;;;;;;1.77;0.15;;;18.70;43.40;;;;;;5069978;28;20025;-73
2020/12/25 05:05:09;;;;;;;1.08;0.05;;;18.70;44.10;;;;;;5074377;28;20024;-73
2020/12/25 05:07:35;;;;;;;2.35;0.30;;;18.70;43.60;;;;;;5059208;28;20508;-73
2020/12/25 05:10:01;;;;;;;0.40;0.40;;;18.70;43.80;;;;;;5047889;28;20035;-73
2020/12/25 05:12:46;;;;;;;0.20;0.15;;;18.80;43.80;;;;;;5058182;28;20032;-73
2020/12/25 05:15:14;;;;;;;0.75;0.20;;;18.80;43.80;;;;;;5056079;28;20028;-73
2020/12/25 05:17:40;;;;;;;0.25;0.20;;;18.90;43.70;;;;;;5058524;28;20110;-73
2020/12/25 05:20:06;;;;;;;0.28;0.10;;;19.00;43.60;;;;;;5040333;28;20079;-73
2020/12/25 05:22:31;;;;;;;0.20;0.10;;;19.10;43.50;;;;;;5076921;28;20675;-72
2020/12/25 05:25:03;;;;;;;1.23;0.20;;;19.20;43.40;;;;;;5058223;28;20083;-72
2020/12/25 05:27:29;;;;;;;0.10;0.10;;;19.20;43.20;;;;;;5041559;28;20024;-72
2020/12/25 05:29:59;;;;;;;0.15;0.13;;;19.20;43.10;;;;;;5042697;28;20045;-72
2020/12/25 05:32:30;;;;;;;3.10;0.20;;;19.30;43.10;;;;;;5074027;28;20099;-72
2020/12/25 05:34:56;;;;;;;1.15;0.30;;;19.40;43.00;;;;;;5058717;28;20041;-72
2020/12/25 05:37:23;;;;;;;0.20;0.20;;;19.40;42.80;;;;;;5070239;28;20575;-72
2020/12/25 05:39:48;;;;;;;0.40;0.10;;;19.50;42.70;;;;;;5066415;28;20070;-73
2020/12/25 05:42:14;;;;;;;0.00;0.00;;;19.50;42.50;;;;;;5057909;28;20426;-73
2020/12/25 05:44:48;;;;;;;0.20;0.10;;;19.50;42.50;;;;;;5056737;28;20028;-73
2020/12/25 05:47:15;;;;;;;1.73;0.30;;;19.60;42.40;;;;;;5062021;28;20033;-73
2020/12/25 05:49:40;;;;;;;3.53;0.00;;;19.60;42.30;;;;;;5062832;28;20044;-72
2020/12/25 05:52:06;;;;;;;0.10;0.10;;;19.60;42.30;;;;;;5066020;28;20119;-72
2020/12/25 05:54:31;;;;;;;1.10;0.25;;;19.70;42.40;;;;;;5068564;28;20128;-72
2020/12/25 05:56:58;;;;;;;0.30;0.10;;;19.70;42.20;;;;;;5061444;28;20028;-72
2020/12/25 05:59:32;;;;;;;0.40;0.25;;;19.70;42.20;;;;;;5034160;28;20043;-72
2020/12/25 06:02:03;;;;;;;0.35;0.15;;;19.70;42.20;;;;;;5058695;28;20511;-72
2020/12/25 06:04:30;;;;;;;0.10;0.10;;;19.70;42.20;;;;;;5071409;28;20137;-73
2020/12/25 06:06:56;;;;;;;0.10;0.10;;;19.80;42.20;;;;;;5068288;28;20020;-72
2020/12/25 06:09:32;;;;;;;0.43;0.15;;;19.80;42.10;;;;;;5058297;28;20036;-73
2020/12/25 06:11:58;;;;;;;0.40;0.30;;;19.80;42.20;;;;;;5067574;28;20111;-72
2020/12/25 06:14:23;;;;;;;0.10;0.10;;;19.80;42.20;;;;;;5053294;28;20539;-71
2020/12/25 06:17:17;;;;;;;0.00;0.00;;;19.80;42.20;;;;;;5074095;28;20027;-72
2020/12/25 06:20:04;;;;;;;0.30;0.10;;;19.80;42.10;;;;;;5042287;28;20046;-72
2020/12/25 06:22:39;;;;;;;;;;;19.80;42.10;;;;;;5057738;28;20065;-72
2020/12/25 06:25:07;;;;;;;0.00;0.00;;;19.80;42.20;;;;;;5054463;28;19912;-72
2020/12/25 06:27:33;;;;;;;0.13;0.10;;;19.80;42.10;;;;;;5054384;28;20266;-72
2020/12/25 06:30:33;;;;;;;0.00;0.00;;;19.80;42.10;;;;;;5072042;28;20093;-72
2020/12/25 06:32:58;;;;;;;1.08;0.20;;;19.80;42.20;;;;;;5073911;28;20037;-72
2020/12/25 06:35:35;;;;;;;0.38;0.15;;;19.80;42.20;;;;;;5074570;28;20032;-72
2020/12/25 06:38:14;;;;;;;0.10;0.10;;;19.80;42.10;;;;;;5055932;28;20040;-71
2020/12/25 06:40:40;;;;;;;0.10;0.10;;;19.80;42.10;;;;;;5035198;28;20562;-72
2020/12/25 06:43:18;;;;;;;0.20;0.03;;;19.80;42.10;;;;;;5054571;28;20033;-71
2020/12/25 06:49:06;;;;;;;0.30;0.15;;;19.90;42.10;;;;;;5075107;28;20142;-71
2020/12/25 06:51:46;;;;;;;0.10;0.00;;;19.90;42.10;;;;;;5053769;28;20037;-74
2020/12/25 06:54:21;;;;;;;0.17;0.17;;;19.90;42.20;;;;;;5054019;28;20158;-73
2020/12/25 06:56:47;;;;;;;0.10;0.10;;;19.90;42.10;;;;;;5040773;28;20040;-74
2020/12/25 06:59:15;;;;;;;0.52;0.10;;;19.90;42.00;;;;;;5052668;28;20539;-72
2020/12/25 07:01:42;;;;;;;0.45;0.10;;;19.90;42.10;;;;;;5034719;28;20016;-72
2020/12/25 07:04:39;;;;;;;0.00;0.00;;;19.90;42.20;;;;;;5040261;28;20041;-73
2020/12/25 07:07:06;;;;;;;0.05;0.05;;;19.90;42.10;;;;;;5048251;28;20094;-73
2020/12/25 07:09:36;;;;;;;0.90;0.10;;;19.90;42.10;;;;;;5073810;28;20475;-73
2020/12/25 07:12:04;;;;;;;0.15;0.13;;;19.90;42.10;;;;;;5058992;28;20032;-73
2020/12/25 07:14:30;;;;;;;0.65;0.10;;;19.90;42.10;;;;;;5050248;28;20054;-73
2020/12/25 07:16:55;;;;;;;0.00;0.00;;;19.90;42.10;;;;;;5077894;28;20028;-73
2020/12/25 07:19:21;;;;;;;0.10;0.10;;;20.00;42.20;;;;;;5076764;28;20066;-73
2020/12/25 07:21:46;;;;;;;0.10;0.10;;;19.90;42.10;;;;;;5078319;28;20027;-73
2020/12/25 07:24:12;;;;;;;4.10;0.10;;;19.90;42.10;;;;;;5041115;28;20040;-74
2020/12/25 07:26:47;;;;;;;0.10;0.10;;;20.00;42.20;;;;;;5041025;28;20040;-74
2020/12/25 07:29:16;;;;;;;0.10;0.10;;;20.00;42.10;;;;;;5061849;28;20056;-72
2020/12/25 07:31:46;;;;;;;1.13;0.32;;;20.00;42.10;;;;;;5042942;28;20033;-72
2020/12/25 07:34:17;;;;;;;2.55;0.57;;;19.90;42.10;;;;;;5059446;28;20070;-73
2020/12/25 07:36:43;;;;;;;1.02;0.43;;;19.90;42.10;;;;;;5048360;28;20016;-74
2020/12/25 07:39:09;;;;;;;0.00;0.00;;;20.00;42.10;;;;;;5040829;28;20101;-74
2020/12/25 07:41:37;;;;;;;6.00;0.13;;;20.00;42.10;;;;;;5075087;28;20540;-73
2020/12/25 07:44:03;;;;;;;0.10;0.10;;;20.00;42.20;;;;;;5061066;28;20419;-70
2020/12/25 07:46:32;;;;;;;0.00;0.00;;;20.00;42.10;;;;;;5059373;28;20044;-68
2020/12/25 07:48:58;;;;;;;0.10;0.10;;;20.00;42.10;;;;;;5060195;28;20365;-70
2020/12/25 07:51:24;;;;;;;0.08;0.08;;;20.00;42.10;;;;;;5078350;28;20070;-71
2020/12/25 07:53:59;;;;;;;0.00;0.00;;;20.00;42.10;;;;;;5029996;28;20059;-72
2020/12/25 07:56:32;;;;;;;0.15;0.00;;;20.00;42.10;;;;;;5057499;28;20036;-71
2020/12/25 07:58:58;;;;;;;0.08;0.08;;;20.00;42.10;;;;;;5056932;28;20036;-71
2020/12/25 08:01:25;;;;;;;0.22;0.22;;;20.00;42.00;;;;;;5059010;28;20082;-71
2020/12/25 08:03:50;;;;;;;0.20;0.10;;;20.00;42.10;;;;;;5077052;28;20024;-71
2020/12/25 08:06:23;;;;;;;0.00;0.00;;;20.00;42.70;;;;;;5079504;28;20051;-71
2020/12/25 08:08:52;;;;;;;0.45;0.20;;;20.00;42.00;;;;;;5036458;28;20044;-70
2020/12/25 08:11:18;;;;;;;0.00;0.00;;;20.00;42.00;;;;;;5058971;28;20115;-71
2020/12/25 08:13:48;;;;;;;0.00;0.00;;;20.10;42.70;;;;;;5041594;28;20151;-71
2020/12/25 08:16:13;;;;;;;1.08;0.32;;;20.00;42.00;;;;;;5062198;28;20078;-71
2020/12/25 08:18:39;;;;;;;1.30;0.10;;;20.00;42.00;;;;;;5048621;28;20016;-71
2020/12/25 08:21:04;;;;;;;0.10;0.05;;;20.00;41.90;;;;;;5057407;28;20027;-70
2020/12/25 08:23:36;;;;;;;0.10;0.10;;;20.10;41.90;;;;;;5073343;28;20027;-71
2020/12/25 08:26:06;;;;;;;4.78;0.30;;;20.10;41.90;;;;;;5054676;28;20048;-70
2020/12/25 08:28:32;;;;;;;0.08;0.08;;;20.10;41.80;;;;;;5057800;28;20056;-70
2020/12/25 08:30:58;;;;;;;3.00;0.45;;;20.10;41.80;;;;;;5041868;28;20524;-70
2020/12/25 08:33:27;;;;;;;0.52;0.00;;;20.10;41.80;;;;;;5056170;28;20491;-70
2020/12/25 08:35:53;;;;;;;0.22;0.20;;;20.20;41.80;;;;;;5060410;28;20017;-69
2020/12/25 08:38:18;;;;;;;0.70;0.20;;;20.20;41.70;;;;;;5061523;28;20138;-73
2020/12/25 08:40:46;;;;;;;0.55;0.10;;;20.30;41.70;;;;;;5077371;28;20036;-73
2020/12/25 08:43:13;;;;;;;1.27;0.10;;;20.20;41.60;;;;;;5066565;28;20045;-73
2020/12/25 08:46:05;;;;;;;0.10;0.10;;;20.30;41.60;;;;;;5074224;28;20398;-72
2020/12/25 08:48:31;;;;;;;0.20;0.17;;;20.30;41.60;;;;;;5058401;28;20037;-72
2020/12/25 08:51:15;;;;;;;0.15;0.10;;;20.30;41.60;;;;;;5068336;28;20020;-70
2020/12/25 08:53:53;;;;;;;0.05;0.05;;;20.30;41.70;;;;;;5065614;28;20032;-69
2020/12/25 08:56:28;;;;;;;0.20;0.10;;;20.30;41.70;;;;;;5058457;28;20036;-69
2020/12/25 08:59:04;;;;;;;0.60;0.30;;;20.30;41.60;;;;;;5062872;28;20027;-69
2020/12/25 09:01:31;;;;;;;0.28;0.10;;;20.30;41.60;;;;;;5071644;28;20082;-69
2020/12/25 09:03:58;;;;;;;0.17;0.17;;;20.30;41.50;;;;;;5044709;28;20074;-69
2020/12/25 09:06:24;;;;;;;0.10;0.10;;;20.30;42.20;;;;;;5066517;28;20020;-69
2020/12/25 09:08:49;;;;;;;0.10;0.10;;;20.30;41.50;;;;;;5062774;28;20039;-69
2020/12/25 09:11:16;;;;;;;0.10;0.10;;;20.30;41.40;;;;;;5065481;28;20068;-69
2020/12/25 09:13:42;;;;;;;0.22;0.22;;;20.30;41.50;;;;;;5071105;28;20110;-69
2020/12/25 09:16:08;;;;;;;0.28;0.10;;;20.30;41.50;;;;;;5042128;28;20119;-69
2020/12/25 09:18:34;;;;;;;0.35;0.20;;;20.20;41.40;;;;;;5057223;28;20039;-69
2020/12/25 09:21:00;;;;;;;0.00;0.00;;;20.20;41.40;;;;;;5044985;28;20028;-69
2020/12/25 09:23:27;;;;;;;0.55;0.20;;;20.20;41.40;;;;;;5067474;28;20155;-70
2020/12/25 09:25:52;;;;;;;0.00;0.00;;;20.20;41.40;;;;;;5078029;28;20017;-70
2020/12/25 09:28:18;;;;;;;0.00;0.00;;;20.20;41.50;;;;;;5070457;28;20028;-70
2020/12/25 09:30:43;;;;;;;0.00;0.00;;;20.20;41.50;;;;;;5072945;28;20089;-70
2020/12/25 09:33:09;;;;;;;0.10;0.10;;;20.20;41.50;;;;;;5074104;28;20038;-71
2020/12/25 09:35:34;;;;;;;1.17;0.10;;;20.20;41.50;;;;;;5071024;28;20040;-69
2020/12/25 09:38:00;;;;;;;1.23;0.10;;;20.20;41.50;;;;;;5062200;28;20128;-70
2020/12/25 09:40:25;;;;;;;0.22;0.22;;;20.20;41.60;;;;;;5073209;28;20083;-70
2020/12/25 09:42:51;;;;;;;0.20;0.15;;;20.20;41.60;;;;;;5074261;28;20111;-72
2020/12/25 09:45:17;;;;;;;0.20;0.00;;;20.20;41.60;;;;;;5062744;28;20097;-72
2020/12/25 09:47:43;;;;;;;0.10;0.10;;;20.20;41.60;;;;;;5072600;28;20025;-73
2020/12/25 09:50:08;;;;;;;0.52;0.35;;;20.10;41.60;;;;;;5072568;28;20033;-72
2020/12/25 09:52:34;;;;;;;0.10;0.10;;;20.10;41.70;;;;;;5075703;28;20024;-72
2020/12/25 09:55:00;;;;;;;0.08;0.03;;;20.10;41.70;;;;;;5072850;28;20111;-72
2020/12/25 09:57:26;;;;;;;0.65;0.15;;;20.20;41.70;;;;;;5040695;28;20112;-72
2020/12/25 09:59:56;;;;;;;0.08;0.08;;;20.20;41.60;;;;;;5053989;28;20020;-72
2020/12/25 10:02:22;;;;;;;1.05;0.30;;;20.20;41.60;;;;;;5053039;28;20066;-70
2020/12/25 10:04:48;;;;;;;0.40;0.20;;;20.20;41.80;;;;;;5072393;28;20018;-71
2020/12/25 10:07:13;;;;;;;0.10;0.10;;;20.20;41.70;;;;;;5070294;28;20112;-71
2020/12/25 10:09:39;;;;;;;0.22;0.08;;;20.20;41.60;;;;;;5070192;28;20052;-72
2020/12/25 10:12:04;;;;;;;1.13;0.10;;;20.20;41.50;;;;;;5071166;28;20037;-71
2020/12/25 10:14:30;;;;;;;1.80;0.20;;;20.20;41.50;;;;;;5070819;28;20036;-71
2020/12/25 10:16:55;;;;;;;0.22;0.22;;;20.30;41.60;;;;;;5071072;28;20020;-71
2020/12/25 10:19:21;;;;;;;0.05;0.05;;;20.30;41.60;;;;;;5072109;28;20384;-71
2020/12/25 10:21:49;;;;;;;1.40;0.35;;;20.30;41.60;;;;;;5071645;28;20028;-71
2020/12/25 10:24:15;;;;;;;3.03;0.10;;;20.30;41.60;;;;;;5072240;28;20024;-71
2020/12/25 10:26:40;;;;;;;0.40;0.20;;;20.30;41.60;;;;;;5073034;28;20488;-72
2020/12/25 10:29:06;;;;;;;0.00;0.00;;;20.30;41.60;;;;;;5054566;28;20039;-72
2020/12/25 10:31:32;;;;;;;0.15;0.15;;;20.30;41.70;;;;;;5062836;28;20033;-74
2020/12/25 10:33:58;;;;;;;1.35;0.10;;;20.30;41.60;;;;;;5069526;28;20046;-72
2020/12/25 10:36:24;;;;;;;0.00;0.00;;;20.30;41.60;;;;;;5071083;28;20396;-72
2020/12/25 10:38:50;;;;;;;0.10;0.10;;;20.30;41.70;;;;;;5070900;28;20013;-72
2020/12/25 10:41:15;;;;;;;1.02;0.17;;;20.30;41.70;;;;;;5030179;28;20062;-68
2020/12/25 10:43:41;;;;;;;0.35;0.35;;;20.30;41.80;;;;;;5057734;28;20123;-69
2020/12/25 10:46:06;;;;;;;1.08;0.30;;;20.30;41.80;;;;;;5071858;28;20519;-69
2020/12/25 10:48:32;;;;;;;4.65;0.15;;;20.30;41.80;;;;;;5071926;28;20136;-69
2020/12/25 10:50:57;;;;;;;0.35;0.10;;;20.40;41.80;;;;;;5075024;28;20043;-69
2020/12/25 10:54:07;;;;;;;1.65;0.43;;;20.30;41.70;;;;;;5074164;28;20051;-69
2020/12/25 10:56:33;;;;;;;1.35;0.30;;;20.40;41.80;;;;;;5066482;28;20025;-69
2020/12/25 10:58:58;;;;;;;0.65;0.52;;;20.40;41.80;;;;;;5071730;28;20021;-69
2020/12/25 11:01:28;;;;;;;0.63;0.30;;;20.40;41.80;;;;;;5065695;28;20063;-69
2020/12/25 11:03:54;;;;;;;0.45;0.30;;;20.40;41.80;;;;;;5050628;28;20033;-68
2020/12/25 11:06:20;;;;;;;0.10;0.10;;;20.40;41.60;;;;;;5040954;28;20033;-69
2020/12/25 11:08:47;;;;;;;3.72;0.47;;;20.40;41.50;;;;;;5072036;28;20085;-68
2020/12/25 11:11:12;;;;;;;1.95;0.28;;;20.40;41.40;;;;;;5064433;28;20040;-68
2020/12/25 11:13:38;;;;;;;0.40;0.30;;;20.40;41.10;;;;;;5070591;28;20083;-69
2020/12/25 11:16:03;;;;;;;2.03;0.45;;;20.50;41.00;;;;;;5071611;28;20032;-68
2020/12/25 11:18:31;;;;;;;0.15;0.15;;;20.50;40.90;;;;;;5072139;28;20024;-68
2020/12/25 11:20:57;;;;;;;0.10;0.10;;;20.50;40.70;;;;;;5056449;28;20020;-68
2020/12/25 11:23:22;;;;;;;1.35;0.57;;;20.50;40.60;;;;;;5071199;28;20041;-69
2020/12/25 11:25:48;;;;;;;0.40;0.20;;;20.50;41.10;;;;;;5070599;28;20107;-70
2020/12/25 11:28:13;;;;;;;0.00;0.00;;;20.50;40.40;;;;;;5071608;28;20031;-69
2020/12/25 11:30:39;;;;;;;0.80;0.22;;;20.50;40.20;;;;;;5045272;28;20423;-67
2020/12/25 11:33:04;;;;;;;0.73;0.22;;;20.50;40.10;;;;;;5071345;28;20039;-69
2020/12/25 11:35:30;;;;;;;0.20;0.08;;;20.50;39.90;;;;;;5062033;28;20021;-69
2020/12/25 11:37:56;;;;;;;0.15;0.10;;;20.50;39.90;;;;;;5071117;28;20112;-69
2020/12/25 11:40:25;;;;;;;1.10;0.40;;;20.50;40.40;;;;;;5067175;28;20170;-68
2020/12/25 11:42:50;;;;;;;1.45;0.35;;;20.50;39.80;;;;;;5071630;28;20021;-73
2020/12/25 11:45:16;;;;;;;0.10;0.10;;;20.60;39.80;;;;;;5071498;28;20021;-73
2020/12/25 11:51:04;;;;;;;2.30;0.30;;;20.60;39.80;;;;;;5070177;28;20074;-73
2020/12/25 11:53:38;;;;;;;3.03;0.10;;;20.60;39.80;;;;;;5075160;28;20377;-73
2020/12/25 11:56:10;;;;;;;0.77;0.32;;;20.60;39.90;;;;;;5063901;28;20062;-73
2020/12/25 11:58:36;;;;;;;0.60;0.28;;;20.60;40.00;;;;;;5067391;28;20028;-73
2020/12/25 12:01:01;;;;;;;0.75;0.20;;;20.50;40.10;;;;;;5068588;28;20029;-73
2020/12/25 12:03:27;;;;;;;0.75;0.20;;;20.50;40.10;;;;;;5063808;28;20029;-69
2020/12/25 12:05:53;;;;;;;0.20;0.10;;;20.50;40.10;;;;;;5075082;28;20058;-73
2020/12/25 12:08:18;;;;;;;2.50;0.15;;;20.50;40.10;;;;;;5062687;28;20051;-73
2020/12/25 12:10:44;;;;;;;0.20;0.20;;;20.50;40.10;;;;;;5074627;28;20043;-73
2020/12/25 12:13:09;;;;;;;1.20;0.20;;;20.50;40.00;;;;;;5074922;28;20111;-73
2020/12/25 12:15:38;;;;;;;1.80;0.20;;;20.50;40.00;;;;;;5074150;28;20043;-73
2020/12/25 12:18:04;;;;;;;1.42;0.50;;;20.50;40.00;;;;;;5054165;28;20537;-69
2020/12/25 12:20:30;;;;;;;1.85;0.25;;;20.50;40.00;;;;;;5068221;28;20085;-69
2020/12/25 12:22:56;;;;;;;0.98;0.28;;;20.50;39.90;;;;;;5057745;28;20060;-69
2020/12/25 12:25:21;;;;;;;0.28;0.28;;;20.50;40.50;;;;;;5063860;28;20095;-69
2020/12/25 12:27:47;;;;;;;0.20;0.13;;;20.50;39.90;;;;;;5053002;28;20033;-68
2020/12/25 12:30:12;;;;;;;1.75;0.47;;;20.50;40.00;;;;;;5058003;28;20488;-68
2020/12/25 12:32:38;;;;;;;0.28;0.22;;;20.50;39.90;;;;;;5074853;28;20651;-68
2020/12/25 12:35:03;;;;;;;0.32;0.20;;;20.50;40.00;;;;;;5056143;28;20500;-73
2020/12/25 12:37:29;;;;;;;1.02;0.20;;;20.50;40.00;;;;;;5069022;28;20112;-73
2020/12/25 12:39:55;;;;;;;1.88;0.52;;;20.50;40.00;;;;;;5065977;28;20040;-72
2020/12/25 12:42:21;;;;;;;0.43;0.22;;;20.50;40.00;;;;;;5074669;28;20032;-72
2020/12/25 12:44:47;;;;;;;0.75;0.40;;;20.50;40.00;;;;;;5072110;28;20016;-72
2020/12/25 12:47:12;;;;;;;0.60;0.32;;;20.50;40.00;;;;;;5073689;28;20034;-72
2020/12/25 12:49:38;;;;;;;0.28;0.28;;;20.40;39.90;;;;;;5065475;28;20064;-72
2020/12/25 12:52:04;;;;;;;0.20;0.20;;;20.40;40.00;;;;;;5074080;28;20082;-72
2020/12/25 12:54:30;;;;;;;0.28;0.20;;;20.50;40.10;;;;;;5072672;28;20027;-72
2020/12/25 12:56:56;;;;;;;1.42;0.40;;;20.50;39.90;;;;;;5073719;28;20032;-72
2020/12/25 12:59:21;;;;;;;0.20;0.20;;;20.50;39.90;;;;;;5073102;28;20442;-73